sensor_id;sensor_type;location;lat;lon;timestamp;P1;durP1;ratioP1;P2;durP2;ratioP2
7160;SDS011;3622;53.576;9.978;2023-05-02T00:00:33;24.53;;;13.63;;
7160;SDS011;3622;53.576;9.978;2023-05-02T00:03:00;26.50;;;15.47;;
7160;SDS011;3622;53.576;9.978;2023-05-02T00:05:26;29.87;;;15.70;;
7160;SDS011;3622;53.576;9.978;2023-05-02T00:07:52;32.83;;;15.80;;
7160;SDS011;3622;53.576;9.978;2023-05-02T00:10:18;30.57;;;16.40;;
7160;SDS011;3622;53.576;9.978;2023-05-02T00:12:44;35.20;;;16.30;;
7160;SDS011;3622;53.576;9.978;2023-05-02T00:15:10;39.83;;;20.13;;
7160;SDS011;3622;53.576;9.978;2023-05-02T00:17:38;33.30;;;17.17;;
7160;SDS011;3622;53.576;9.978;2023-05-02T00:20:05;36.53;;;17.53;;
7160;SDS011;3622;53.576;9.978;2023-05-02T00:22:33;34.83;;;16.97;;
7160;SDS011;3622;53.576;9.978;2023-05-02T00:24:59;31.90;;;16.73;;
7160;SDS011;3622;53.576;9.978;2023-05-02T00:27:25;28.03;;;15.43;;
7160;SDS011;3622;53.576;9.978;2023-05-02T00:29:54;35.57;;;16.40;;
7160;SDS011;3622;53.576;9.978;2023-05-02T00:32:21;32.73;;;16.33;;
7160;SDS011;3622;53.576;9.978;2023-05-02T00:34:47;35.83;;;16.80;;
7160;SDS011;3622;53.576;9.978;2023-05-02T00:37:13;29.50;;;15.53;;
7160;SDS011;3622;53.576;9.978;2023-05-02T00:39:39;33.80;;;18.10;;
7160;SDS011;3622;53.576;9.978;2023-05-02T00:42:05;37.60;;;16.30;;
7160;SDS011;3622;53.576;9.978;2023-05-02T00:44:31;34.03;;;16.87;;
7160;SDS011;3622;53.576;9.978;2023-05-02T00:46:57;31.67;;;17.03;;
7160;SDS011;3622;53.576;9.978;2023-05-02T00:49:25;31.70;;;16.67;;
7160;SDS011;3622;53.576;9.978;2023-05-02T00:51:52;31.50;;;16.73;;
7160;SDS011;3622;53.576;9.978;2023-05-02T00:54:18;34.17;;;16.97;;
7160;SDS011;3622;53.576;9.978;2023-05-02T00:56:44;29.90;;;16.87;;
7160;SDS011;3622;53.576;9.978;2023-05-02T00:59:11;34.13;;;17.30;;
7160;SDS011;3622;53.576;9.978;2023-05-02T01:04:17;36.57;;;16.83;;
7160;SDS011;3622;53.576;9.978;2023-05-02T01:06:51;41.27;;;18.13;;
7160;SDS011;3622;53.576;9.978;2023-05-02T01:12:10;30.53;;;16.63;;
7160;SDS011;3622;53.576;9.978;2023-05-02T01:14:44;30.63;;;17.00;;
7160;SDS011;3622;53.576;9.978;2023-05-02T01:17:11;35.53;;;17.70;;
7160;SDS011;3622;53.576;9.978;2023-05-02T01:19:40;30.87;;;16.70;;
7160;SDS011;3622;53.576;9.978;2023-05-02T01:22:07;33.70;;;16.37;;
7160;SDS011;3622;53.576;9.978;2023-05-02T01:24:36;29.10;;;15.70;;
7160;SDS011;3622;53.576;9.978;2023-05-02T01:27:10;35.50;;;17.20;;
7160;SDS011;3622;53.576;9.978;2023-05-02T01:29:40;32.60;;;16.80;;
7160;SDS011;3622;53.576;9.978;2023-05-02T01:32:06;37.17;;;18.77;;
7160;SDS011;3622;53.576;9.978;2023-05-02T01:34:34;34.57;;;15.67;;
7160;SDS011;3622;53.576;9.978;2023-05-02T01:37:00;28.73;;;13.90;;
7160;SDS011;3622;53.576;9.978;2023-05-02T01:39:27;24.10;;;13.60;;
7160;SDS011;3622;53.576;9.978;2023-05-02T01:41:55;25.97;;;13.03;;
7160;SDS011;3622;53.576;9.978;2023-05-02T01:44:23;24.00;;;12.10;;
7160;SDS011;3622;53.576;9.978;2023-05-02T01:46:49;24.37;;;12.00;;
7160;SDS011;3622;53.576;9.978;2023-05-02T01:49:17;24.70;;;11.70;;
7160;SDS011;3622;53.576;9.978;2023-05-02T01:51:43;21.03;;;10.57;;
7160;SDS011;3622;53.576;9.978;2023-05-02T01:54:11;20.40;;;9.93;;
7160;SDS011;3622;53.576;9.978;2023-05-02T01:56:38;18.83;;;10.30;;
7160;SDS011;3622;53.576;9.978;2023-05-02T01:59:05;16.60;;;9.00;;
7160;SDS011;3622;53.576;9.978;2023-05-02T02:01:33;17.53;;;9.30;;
7160;SDS011;3622;53.576;9.978;2023-05-02T02:03:59;18.70;;;8.47;;
7160;SDS011;3622;53.576;9.978;2023-05-02T02:06:26;18.63;;;9.67;;
7160;SDS011;3622;53.576;9.978;2023-05-02T02:08:52;14.70;;;8.40;;
7160;SDS011;3622;53.576;9.978;2023-05-02T02:11:35;17.57;;;8.33;;
7160;SDS011;3622;53.576;9.978;2023-05-02T02:14:04;16.20;;;9.17;;
7160;SDS011;3622;53.576;9.978;2023-05-02T02:16:32;15.77;;;8.80;;
7160;SDS011;3622;53.576;9.978;2023-05-02T02:19:01;16.60;;;8.50;;
7160;SDS011;3622;53.576;9.978;2023-05-02T02:21:29;11.73;;;7.60;;
7160;SDS011;3622;53.576;9.978;2023-05-02T02:23:55;11.60;;;7.47;;
7160;SDS011;3622;53.576;9.978;2023-05-02T02:26:22;12.20;;;6.47;;
7160;SDS011;3622;53.576;9.978;2023-05-02T02:28:48;9.33;;;6.50;;
7160;SDS011;3622;53.576;9.978;2023-05-02T02:31:14;11.43;;;6.03;;
7160;SDS011;3622;53.576;9.978;2023-05-02T02:33:40;9.70;;;6.10;;
7160;SDS011;3622;53.576;9.978;2023-05-02T02:36:07;10.10;;;6.20;;
7160;SDS011;3622;53.576;9.978;2023-05-02T02:38:37;11.90;;;7.00;;
7160;SDS011;3622;53.576;9.978;2023-05-02T02:41:17;8.63;;;6.83;;
7160;SDS011;3622;53.576;9.978;2023-05-02T02:43:59;5.47;;;4.83;;
7160;SDS011;3622;53.576;9.978;2023-05-02T02:49:08;8.07;;;6.10;;
7160;SDS011;3622;53.576;9.978;2023-05-02T02:51:37;9.20;;;5.70;;
7160;SDS011;3622;53.576;9.978;2023-05-02T02:56:40;17.03;;;5.20;;
7160;SDS011;3622;53.576;9.978;2023-05-02T02:59:14;10.33;;;4.93;;
7160;SDS011;3622;53.576;9.978;2023-05-02T03:01:42;6.67;;;3.80;;
7160;SDS011;3622;53.576;9.978;2023-05-02T03:04:10;6.80;;;4.10;;
7160;SDS011;3622;53.576;9.978;2023-05-02T03:06:36;10.93;;;5.00;;
7160;SDS011;3622;53.576;9.978;2023-05-02T03:09:02;9.67;;;5.00;;
7160;SDS011;3622;53.576;9.978;2023-05-02T03:11:28;12.30;;;3.63;;
7160;SDS011;3622;53.576;9.978;2023-05-02T03:13:54;9.33;;;4.40;;
7160;SDS011;3622;53.576;9.978;2023-05-02T03:16:33;7.53;;;3.50;;
7160;SDS011;3622;53.576;9.978;2023-05-02T03:19:00;9.33;;;3.73;;
7160;SDS011;3622;53.576;9.978;2023-05-02T03:21:27;12.10;;;3.93;;
7160;SDS011;3622;53.576;9.978;2023-05-02T03:23:55;11.83;;;3.50;;
7160;SDS011;3622;53.576;9.978;2023-05-02T03:26:21;8.10;;;3.50;;
7160;SDS011;3622;53.576;9.978;2023-05-02T03:28:47;9.43;;;3.40;;
7160;SDS011;3622;53.576;9.978;2023-05-02T03:31:14;7.13;;;3.57;;
7160;SDS011;3622;53.576;9.978;2023-05-02T03:33:40;9.17;;;4.00;;
7160;SDS011;3622;53.576;9.978;2023-05-02T03:36:06;14.97;;;4.43;;
7160;SDS011;3622;53.576;9.978;2023-05-02T03:38:32;21.73;;;4.50;;
7160;SDS011;3622;53.576;9.978;2023-05-02T03:40:58;22.13;;;5.20;;
7160;SDS011;3622;53.576;9.978;2023-05-02T03:43:24;10.73;;;4.30;;
7160;SDS011;3622;53.576;9.978;2023-05-02T03:45:50;11.83;;;4.10;;
7160;SDS011;3622;53.576;9.978;2023-05-02T03:48:16;11.07;;;4.40;;
7160;SDS011;3622;53.576;9.978;2023-05-02T03:50:42;14.93;;;4.50;;
7160;SDS011;3622;53.576;9.978;2023-05-02T03:53:08;13.40;;;4.03;;
7160;SDS011;3622;53.576;9.978;2023-05-02T03:55:40;17.93;;;3.90;;
7160;SDS011;3622;53.576;9.978;2023-05-02T03:58:07;14.97;;;4.60;;
7160;SDS011;3622;53.576;9.978;2023-05-02T04:00:33;14.63;;;3.87;;
7160;SDS011;3622;53.576;9.978;2023-05-02T04:03:00;21.80;;;4.63;;
7160;SDS011;3622;53.576;9.978;2023-05-02T04:05:26;13.17;;;3.63;;
7160;SDS011;3622;53.576;9.978;2023-05-02T04:07:52;18.63;;;3.53;;
7160;SDS011;3622;53.576;9.978;2023-05-02T04:10:18;14.80;;;3.60;;
7160;SDS011;3622;53.576;9.978;2023-05-02T04:12:44;10.67;;;4.00;;
7160;SDS011;3622;53.576;9.978;2023-05-02T04:15:10;18.13;;;3.37;;
7160;SDS011;3622;53.576;9.978;2023-05-02T04:17:36;19.17;;;4.10;;
7160;SDS011;3622;53.576;9.978;2023-05-02T04:20:03;10.43;;;3.40;;
7160;SDS011;3622;53.576;9.978;2023-05-02T04:22:29;10.40;;;3.37;;
7160;SDS011;3622;53.576;9.978;2023-05-02T04:24:55;12.43;;;3.57;;
7160;SDS011;3622;53.576;9.978;2023-05-02T04:27:21;21.33;;;3.70;;
7160;SDS011;3622;53.576;9.978;2023-05-02T04:29:47;14.07;;;4.20;;
7160;SDS011;3622;53.576;9.978;2023-05-02T04:32:14;14.37;;;3.33;;
7160;SDS011;3622;53.576;9.978;2023-05-02T04:34:40;5.47;;;3.10;;
7160;SDS011;3622;53.576;9.978;2023-05-02T04:37:06;11.70;;;3.77;;
7160;SDS011;3622;53.576;9.978;2023-05-02T04:39:32;18.13;;;3.63;;
7160;SDS011;3622;53.576;9.978;2023-05-02T04:41:58;9.20;;;3.90;;
7160;SDS011;3622;53.576;9.978;2023-05-02T04:44:24;23.07;;;4.53;;
7160;SDS011;3622;53.576;9.978;2023-05-02T04:46:50;20.50;;;4.63;;
7160;SDS011;3622;53.576;9.978;2023-05-02T04:49:16;9.47;;;3.33;;
7160;SDS011;3622;53.576;9.978;2023-05-02T04:51:43;13.47;;;3.63;;
7160;SDS011;3622;53.576;9.978;2023-05-02T04:54:09;13.60;;;3.60;;
7160;SDS011;3622;53.576;9.978;2023-05-02T04:56:35;10.17;;;4.17;;
7160;SDS011;3622;53.576;9.978;2023-05-02T04:59:01;10.97;;;3.23;;
7160;SDS011;3622;53.576;9.978;2023-05-02T05:01:26;9.03;;;4.03;;
7160;SDS011;3622;53.576;9.978;2023-05-02T05:03:53;8.20;;;3.70;;
7160;SDS011;3622;53.576;9.978;2023-05-02T05:06:19;11.07;;;3.87;;
7160;SDS011;3622;53.576;9.978;2023-05-02T05:08:45;11.80;;;3.90;;
7160;SDS011;3622;53.576;9.978;2023-05-02T05:11:11;8.13;;;3.63;;
7160;SDS011;3622;53.576;9.978;2023-05-02T05:13:37;15.83;;;3.80;;
7160;SDS011;3622;53.576;9.978;2023-05-02T05:16:03;17.47;;;3.97;;
7160;SDS011;3622;53.576;9.978;2023-05-02T05:18:29;14.13;;;4.20;;
7160;SDS011;3622;53.576;9.978;2023-05-02T05:20:56;9.50;;;4.07;;
7160;SDS011;3622;53.576;9.978;2023-05-02T05:23:22;12.50;;;4.57;;
7160;SDS011;3622;53.576;9.978;2023-05-02T05:25:48;13.80;;;3.83;;
7160;SDS011;3622;53.576;9.978;2023-05-02T05:28:14;14.00;;;3.67;;
7160;SDS011;3622;53.576;9.978;2023-05-02T05:30:40;7.83;;;3.60;;
7160;SDS011;3622;53.576;9.978;2023-05-02T05:33:06;15.20;;;4.70;;
7160;SDS011;3622;53.576;9.978;2023-05-02T05:35:32;15.50;;;4.40;;
7160;SDS011;3622;53.576;9.978;2023-05-02T05:37:57;14.23;;;4.23;;
7160;SDS011;3622;53.576;9.978;2023-05-02T05:40:24;15.83;;;3.90;;
7160;SDS011;3622;53.576;9.978;2023-05-02T05:42:50;12.57;;;3.70;;
7160;SDS011;3622;53.576;9.978;2023-05-02T05:45:16;7.33;;;3.60;;
7160;SDS011;3622;53.576;9.978;2023-05-02T05:47:43;15.47;;;3.80;;
7160;SDS011;3622;53.576;9.978;2023-05-02T05:50:09;13.57;;;3.33;;
7160;SDS011;3622;53.576;9.978;2023-05-02T05:52:36;13.23;;;3.00;;
7160;SDS011;3622;53.576;9.978;2023-05-02T05:55:01;10.90;;;4.37;;
7160;SDS011;3622;53.576;9.978;2023-05-02T05:57:28;5.87;;;3.63;;
7160;SDS011;3622;53.576;9.978;2023-05-02T05:59:54;6.57;;;3.27;;
7160;SDS011;3622;53.576;9.978;2023-05-02T06:02:20;5.40;;;3.13;;
7160;SDS011;3622;53.576;9.978;2023-05-02T06:04:46;8.30;;;3.83;;
7160;SDS011;3622;53.576;9.978;2023-05-02T06:07:12;10.23;;;5.10;;
7160;SDS011;3622;53.576;9.978;2023-05-02T06:09:38;10.63;;;4.93;;
7160;SDS011;3622;53.576;9.978;2023-05-02T06:12:05;11.40;;;4.80;;
7160;SDS011;3622;53.576;9.978;2023-05-02T06:14:31;12.20;;;4.93;;
7160;SDS011;3622;53.576;9.978;2023-05-02T06:17:00;8.53;;;3.47;;
7160;SDS011;3622;53.576;9.978;2023-05-02T06:19:26;3.90;;;3.17;;
7160;SDS011;3622;53.576;9.978;2023-05-02T06:21:52;6.33;;;2.97;;
7160;SDS011;3622;53.576;9.978;2023-05-02T06:24:18;6.03;;;3.17;;
7160;SDS011;3622;53.576;9.978;2023-05-02T06:26:44;3.63;;;3.17;;
7160;SDS011;3622;53.576;9.978;2023-05-02T06:29:10;10.43;;;3.27;;
7160;SDS011;3622;53.576;9.978;2023-05-02T06:31:36;5.87;;;2.80;;
7160;SDS011;3622;53.576;9.978;2023-05-02T06:34:02;7.37;;;2.87;;
7160;SDS011;3622;53.576;9.978;2023-05-02T06:36:28;10.37;;;3.30;;
7160;SDS011;3622;53.576;9.978;2023-05-02T06:38:55;7.30;;;3.27;;
7160;SDS011;3622;53.576;9.978;2023-05-02T06:41:21;9.13;;;3.00;;
7160;SDS011;3622;53.576;9.978;2023-05-02T06:43:47;7.80;;;3.30;;
7160;SDS011;3622;53.576;9.978;2023-05-02T06:46:13;6.63;;;3.30;;
7160;SDS011;3622;53.576;9.978;2023-05-02T06:48:39;5.80;;;3.20;;
7160;SDS011;3622;53.576;9.978;2023-05-02T06:51:05;7.43;;;3.70;;
7160;SDS011;3622;53.576;9.978;2023-05-02T06:53:31;10.23;;;4.60;;
7160;SDS011;3622;53.576;9.978;2023-05-02T06:55:57;10.37;;;3.13;;
7160;SDS011;3622;53.576;9.978;2023-05-02T06:58:23;9.47;;;3.00;;
7160;SDS011;3622;53.576;9.978;2023-05-02T07:00:49;4.13;;;2.63;;
7160;SDS011;3622;53.576;9.978;2023-05-02T07:03:15;7.30;;;3.30;;
7160;SDS011;3622;53.576;9.978;2023-05-02T07:05:41;3.00;;;2.80;;
7160;SDS011;3622;53.576;9.978;2023-05-02T07:08:07;5.47;;;3.73;;
7160;SDS011;3622;53.576;9.978;2023-05-02T07:10:34;6.40;;;3.00;;
7160;SDS011;3622;53.576;9.978;2023-05-02T07:13:00;5.27;;;3.30;;
7160;SDS011;3622;53.576;9.978;2023-05-02T07:15:26;4.97;;;3.10;;
7160;SDS011;3622;53.576;9.978;2023-05-02T07:17:52;3.97;;;3.13;;
7160;SDS011;3622;53.576;9.978;2023-05-02T07:20:18;3.87;;;3.30;;
7160;SDS011;3622;53.576;9.978;2023-05-02T07:22:44;7.10;;;2.77;;
7160;SDS011;3622;53.576;9.978;2023-05-02T07:25:10;3.43;;;3.13;;
7160;SDS011;3622;53.576;9.978;2023-05-02T07:27:36;4.93;;;2.97;;
7160;SDS011;3622;53.576;9.978;2023-05-02T07:30:02;3.33;;;1.80;;
7160;SDS011;3622;53.576;9.978;2023-05-02T07:32:28;3.40;;;2.57;;
7160;SDS011;3622;53.576;9.978;2023-05-02T07:34:54;3.70;;;1.60;;
7160;SDS011;3622;53.576;9.978;2023-05-02T07:37:21;2.07;;;1.70;;
7160;SDS011;3622;53.576;9.978;2023-05-02T07:39:47;6.03;;;1.83;;
7160;SDS011;3622;53.576;9.978;2023-05-02T07:42:13;4.57;;;2.07;;
7160;SDS011;3622;53.576;9.978;2023-05-02T07:44:39;3.57;;;2.20;;
7160;SDS011;3622;53.576;9.978;2023-05-02T07:47:05;3.70;;;1.50;;
7160;SDS011;3622;53.576;9.978;2023-05-02T07:49:31;9.60;;;1.60;;
7160;SDS011;3622;53.576;9.978;2023-05-02T07:51:57;3.20;;;1.80;;
7160;SDS011;3622;53.576;9.978;2023-05-02T07:54:23;5.90;;;2.70;;
7160;SDS011;3622;53.576;9.978;2023-05-02T07:56:52;4.00;;;3.30;;
7160;SDS011;3622;53.576;9.978;2023-05-02T07:59:18;12.17;;;3.00;;
7160;SDS011;3622;53.576;9.978;2023-05-02T08:01:44;7.00;;;2.57;;
7160;SDS011;3622;53.576;9.978;2023-05-02T08:04:10;3.83;;;2.43;;
7160;SDS011;3622;53.576;9.978;2023-05-02T08:06:36;3.30;;;3.00;;
7160;SDS011;3622;53.576;9.978;2023-05-02T08:09:03;5.83;;;1.67;;
7160;SDS011;3622;53.576;9.978;2023-05-02T08:11:28;4.40;;;1.90;;
7160;SDS011;3622;53.576;9.978;2023-05-02T08:13:54;2.43;;;1.53;;
7160;SDS011;3622;53.576;9.978;2023-05-02T08:16:20;5.43;;;1.60;;
7160;SDS011;3622;53.576;9.978;2023-05-02T08:18:47;4.13;;;1.40;;
7160;SDS011;3622;53.576;9.978;2023-05-02T08:21:13;5.37;;;1.77;;
7160;SDS011;3622;53.576;9.978;2023-05-02T08:23:40;10.80;;;2.03;;
7160;SDS011;3622;53.576;9.978;2023-05-02T08:26:06;1.80;;;1.47;;
7160;SDS011;3622;53.576;9.978;2023-05-02T08:28:32;5.17;;;1.90;;
7160;SDS011;3622;53.576;9.978;2023-05-02T08:30:58;6.87;;;1.70;;
7160;SDS011;3622;53.576;9.978;2023-05-02T08:33:24;3.77;;;2.10;;
7160;SDS011;3622;53.576;9.978;2023-05-02T08:35:50;6.80;;;2.00;;
7160;SDS011;3622;53.576;9.978;2023-05-02T08:38:17;4.83;;;2.27;;
7160;SDS011;3622;53.576;9.978;2023-05-02T08:40:43;5.67;;;2.27;;
7160;SDS011;3622;53.576;9.978;2023-05-02T08:43:12;4.27;;;2.67;;
7160;SDS011;3622;53.576;9.978;2023-05-02T08:45:39;7.17;;;2.73;;
7160;SDS011;3622;53.576;9.978;2023-05-02T08:48:06;7.37;;;2.70;;
7160;SDS011;3622;53.576;9.978;2023-05-02T08:50:35;4.40;;;2.90;;
7160;SDS011;3622;53.576;9.978;2023-05-02T08:53:03;4.43;;;2.40;;
7160;SDS011;3622;53.576;9.978;2023-05-02T08:55:29;3.57;;;2.30;;
7160;SDS011;3622;53.576;9.978;2023-05-02T08:57:56;3.17;;;2.63;;
7160;SDS011;3622;53.576;9.978;2023-05-02T09:00:22;3.60;;;3.07;;
7160;SDS011;3622;53.576;9.978;2023-05-02T09:05:17;4.40;;;2.53;;
7160;SDS011;3622;53.576;9.978;2023-05-02T09:07:45;3.43;;;2.37;;
7160;SDS011;3622;53.576;9.978;2023-05-02T09:10:12;5.10;;;2.30;;
7160;SDS011;3622;53.576;9.978;2023-05-02T09:12:38;2.40;;;2.17;;
7160;SDS011;3622;53.576;9.978;2023-05-02T09:15:07;2.43;;;2.23;;
7160;SDS011;3622;53.576;9.978;2023-05-02T09:17:40;2.50;;;2.30;;
7160;SDS011;3622;53.576;9.978;2023-05-02T09:20:06;2.80;;;1.90;;
7160;SDS011;3622;53.576;9.978;2023-05-02T09:22:33;2.80;;;1.70;;
7160;SDS011;3622;53.576;9.978;2023-05-02T09:24:59;3.77;;;1.97;;
7160;SDS011;3622;53.576;9.978;2023-05-02T09:27:26;3.20;;;1.33;;
7160;SDS011;3622;53.576;9.978;2023-05-02T09:29:52;3.73;;;1.70;;
7160;SDS011;3622;53.576;9.978;2023-05-02T09:32:44;3.43;;;1.77;;
7160;SDS011;3622;53.576;9.978;2023-05-02T09:35:10;2.13;;;1.37;;
7160;SDS011;3622;53.576;9.978;2023-05-02T09:37:37;3.40;;;1.43;;
7160;SDS011;3622;53.576;9.978;2023-05-02T09:40:04;4.80;;;1.53;;
7160;SDS011;3622;53.576;9.978;2023-05-02T09:42:30;4.53;;;1.90;;
7160;SDS011;3622;53.576;9.978;2023-05-02T09:44:56;2.83;;;1.43;;
7160;SDS011;3622;53.576;9.978;2023-05-02T09:47:25;3.97;;;1.67;;
7160;SDS011;3622;53.576;9.978;2023-05-02T09:49:51;6.40;;;1.50;;
7160;SDS011;3622;53.576;9.978;2023-05-02T09:52:18;3.30;;;1.37;;
7160;SDS011;3622;53.576;9.978;2023-05-02T09:54:47;1.20;;;1.10;;
7160;SDS011;3622;53.576;9.978;2023-05-02T09:57:17;1.40;;;1.30;;
7160;SDS011;3622;53.576;9.978;2023-05-02T09:59:55;1.40;;;1.27;;
7160;SDS011;3622;53.576;9.978;2023-05-02T10:02:21;3.13;;;1.47;;
7160;SDS011;3622;53.576;9.978;2023-05-02T10:04:48;3.07;;;1.83;;
7160;SDS011;3622;53.576;9.978;2023-05-02T10:07:14;5.17;;;1.60;;
7160;SDS011;3622;53.576;9.978;2023-05-02T10:09:42;1.80;;;1.50;;
7160;SDS011;3622;53.576;9.978;2023-05-02T10:12:09;7.63;;;2.20;;
7160;SDS011;3622;53.576;9.978;2023-05-02T10:14:39;3.23;;;1.70;;
7160;SDS011;3622;53.576;9.978;2023-05-02T10:19:38;2.20;;;1.20;;
7160;SDS011;3622;53.576;9.978;2023-05-02T10:22:06;5.43;;;2.13;;
7160;SDS011;3622;53.576;9.978;2023-05-02T10:24:33;2.03;;;1.73;;
7160;SDS011;3622;53.576;9.978;2023-05-02T10:26:59;2.80;;;1.90;;
7160;SDS011;3622;53.576;9.978;2023-05-02T10:29:29;3.10;;;2.13;;
7160;SDS011;3622;53.576;9.978;2023-05-02T10:31:56;4.73;;;2.03;;
7160;SDS011;3622;53.576;9.978;2023-05-02T10:34:23;3.30;;;1.70;;
7160;SDS011;3622;53.576;9.978;2023-05-02T10:36:49;5.23;;;1.40;;
7160;SDS011;3622;53.576;9.978;2023-05-02T10:39:15;3.63;;;2.00;;
7160;SDS011;3622;53.576;9.978;2023-05-02T10:41:42;4.27;;;1.97;;
7160;SDS011;3622;53.576;9.978;2023-05-02T10:44:08;2.50;;;1.37;;
7160;SDS011;3622;53.576;9.978;2023-05-02T10:46:38;1.73;;;1.63;;
7160;SDS011;3622;53.576;9.978;2023-05-02T10:49:09;1.87;;;1.63;;
7160;SDS011;3622;53.576;9.978;2023-05-02T10:51:36;1.57;;;1.43;;
7160;SDS011;3622;53.576;9.978;2023-05-02T10:59:29;4.73;;;1.50;;
7160;SDS011;3622;53.576;9.978;2023-05-02T11:01:55;4.20;;;1.30;;
7160;SDS011;3622;53.576;9.978;2023-05-02T11:04:21;3.50;;;1.30;;
7160;SDS011;3622;53.576;9.978;2023-05-02T11:11:49;4.20;;;1.73;;
7160;SDS011;3622;53.576;9.978;2023-05-02T11:24:45;6.10;;;2.40;;
7160;SDS011;3622;53.576;9.978;2023-05-02T11:30:00;3.73;;;1.57;;
7160;SDS011;3622;53.576;9.978;2023-05-02T11:35:16;1.80;;;1.40;;
7160;SDS011;3622;53.576;9.978;2023-05-02T11:37:43;2.67;;;1.50;;
7160;SDS011;3622;53.576;9.978;2023-05-02T11:40:17;2.13;;;1.80;;
7160;SDS011;3622;53.576;9.978;2023-05-02T11:42:43;1.90;;;1.70;;
7160;SDS011;3622;53.576;9.978;2023-05-02T11:45:09;3.30;;;1.80;;
7160;SDS011;3622;53.576;9.978;2023-05-02T11:47:35;2.13;;;1.63;;
7160;SDS011;3622;53.576;9.978;2023-05-02T11:50:04;2.57;;;2.10;;
7160;SDS011;3622;53.576;9.978;2023-05-02T11:52:35;6.57;;;1.90;;
7160;SDS011;3622;53.576;9.978;2023-05-02T11:55:03;1.47;;;1.20;;
7160;SDS011;3622;53.576;9.978;2023-05-02T11:57:32;3.27;;;1.47;;
7160;SDS011;3622;53.576;9.978;2023-05-02T11:59:58;2.23;;;1.20;;
7160;SDS011;3622;53.576;9.978;2023-05-02T12:02:37;2.80;;;1.17;;
7160;SDS011;3622;53.576;9.978;2023-05-02T12:05:03;15.90;;;9.83;;
7160;SDS011;3622;53.576;9.978;2023-05-02T12:07:40;4.20;;;1.10;;
7160;SDS011;3622;53.576;9.978;2023-05-02T12:10:06;4.50;;;1.23;;
7160;SDS011;3622;53.576;9.978;2023-05-02T12:12:33;1.50;;;1.40;;
7160;SDS011;3622;53.576;9.978;2023-05-02T12:15:02;2.87;;;2.17;;
7160;SDS011;3622;53.576;9.978;2023-05-02T12:17:29;3.40;;;1.87;;
7160;SDS011;3622;53.576;9.978;2023-05-02T12:19:55;3.83;;;1.60;;
7160;SDS011;3622;53.576;9.978;2023-05-02T12:22:22;2.40;;;1.93;;
7160;SDS011;3622;53.576;9.978;2023-05-02T12:24:48;3.53;;;1.70;;
7160;SDS011;3622;53.576;9.978;2023-05-02T12:27:15;1.77;;;1.50;;
7160;SDS011;3622;53.576;9.978;2023-05-02T12:29:42;2.07;;;1.83;;
7160;SDS011;3622;53.576;9.978;2023-05-02T12:32:09;2.00;;;1.77;;
7160;SDS011;3622;53.576;9.978;2023-05-02T12:34:36;5.23;;;1.50;;
7160;SDS011;3622;53.576;9.978;2023-05-02T12:37:03;3.43;;;1.53;;
7160;SDS011;3622;53.576;9.978;2023-05-02T12:39:39;1.97;;;1.47;;
7160;SDS011;3622;53.576;9.978;2023-05-02T12:42:13;7.40;;;1.80;;
7160;SDS011;3622;53.576;9.978;2023-05-02T12:44:40;2.33;;;1.93;;
7160;SDS011;3622;53.576;9.978;2023-05-02T12:47:07;2.00;;;1.50;;
7160;SDS011;3622;53.576;9.978;2023-05-02T12:49:47;2.90;;;1.93;;
7160;SDS011;3622;53.576;9.978;2023-05-02T12:52:13;2.53;;;1.63;;
7160;SDS011;3622;53.576;9.978;2023-05-02T12:54:39;1.77;;;1.60;;
7160;SDS011;3622;53.576;9.978;2023-05-02T12:57:05;2.03;;;1.73;;
7160;SDS011;3622;53.576;9.978;2023-05-02T12:59:31;1.80;;;1.43;;
7160;SDS011;3622;53.576;9.978;2023-05-02T13:01:58;2.20;;;1.20;;
7160;SDS011;3622;53.576;9.978;2023-05-02T13:04:34;1.77;;;1.67;;
7160;SDS011;3622;53.576;9.978;2023-05-02T13:07:00;2.93;;;1.50;;
7160;SDS011;3622;53.576;9.978;2023-05-02T13:09:26;4.00;;;1.60;;
7160;SDS011;3622;53.576;9.978;2023-05-02T13:11:52;3.53;;;1.70;;
7160;SDS011;3622;53.576;9.978;2023-05-02T13:14:18;4.50;;;1.63;;
7160;SDS011;3622;53.576;9.978;2023-05-02T13:16:44;2.17;;;1.80;;
7160;SDS011;3622;53.576;9.978;2023-05-02T13:19:10;3.37;;;1.80;;
7160;SDS011;3622;53.576;9.978;2023-05-02T13:21:36;3.57;;;1.60;;
7160;SDS011;3622;53.576;9.978;2023-05-02T13:24:02;1.73;;;1.40;;
7160;SDS011;3622;53.576;9.978;2023-05-02T13:26:28;3.13;;;2.00;;
7160;SDS011;3622;53.576;9.978;2023-05-02T13:28:54;3.93;;;1.70;;
7160;SDS011;3622;53.576;9.978;2023-05-02T13:31:20;2.90;;;1.80;;
7160;SDS011;3622;53.576;9.978;2023-05-02T13:33:46;3.17;;;2.13;;
7160;SDS011;3622;53.576;9.978;2023-05-02T13:36:12;3.63;;;2.00;;
7160;SDS011;3622;53.576;9.978;2023-05-02T13:38:38;3.53;;;2.00;;
7160;SDS011;3622;53.576;9.978;2023-05-02T13:41:04;2.13;;;1.60;;
7160;SDS011;3622;53.576;9.978;2023-05-02T13:43:30;2.83;;;1.60;;
7160;SDS011;3622;53.576;9.978;2023-05-02T13:45:56;5.57;;;2.20;;
7160;SDS011;3622;53.576;9.978;2023-05-02T13:48:22;2.37;;;1.60;;
7160;SDS011;3622;53.576;9.978;2023-05-02T13:50:49;3.10;;;1.90;;
7160;SDS011;3622;53.576;9.978;2023-05-02T13:53:15;2.90;;;1.57;;
7160;SDS011;3622;53.576;9.978;2023-05-02T13:55:41;7.77;;;2.00;;
7160;SDS011;3622;53.576;9.978;2023-05-02T13:58:07;2.60;;;1.67;;
7160;SDS011;3622;53.576;9.978;2023-05-02T14:00:33;1.47;;;1.37;;
7160;SDS011;3622;53.576;9.978;2023-05-02T14:02:59;4.07;;;1.87;;
7160;SDS011;3622;53.576;9.978;2023-05-02T14:05:25;4.07;;;2.10;;
7160;SDS011;3622;53.576;9.978;2023-05-02T14:07:51;5.60;;;2.40;;
7160;SDS011;3622;53.576;9.978;2023-05-02T14:10:17;6.10;;;2.17;;
7160;SDS011;3622;53.576;9.978;2023-05-02T14:12:43;5.70;;;2.10;;
7160;SDS011;3622;53.576;9.978;2023-05-02T14:15:09;5.30;;;1.90;;
7160;SDS011;3622;53.576;9.978;2023-05-02T14:17:35;3.17;;;1.77;;
7160;SDS011;3622;53.576;9.978;2023-05-02T14:20:01;3.33;;;1.90;;
7160;SDS011;3622;53.576;9.978;2023-05-02T14:22:27;4.30;;;1.77;;
7160;SDS011;3622;53.576;9.978;2023-05-02T14:24:53;4.20;;;1.83;;
7160;SDS011;3622;53.576;9.978;2023-05-02T14:27:19;7.40;;;1.90;;
7160;SDS011;3622;53.576;9.978;2023-05-02T14:29:46;3.00;;;2.10;;
7160;SDS011;3622;53.576;9.978;2023-05-02T14:32:12;4.03;;;2.10;;
7160;SDS011;3622;53.576;9.978;2023-05-02T14:34:39;1.37;;;1.27;;
7160;SDS011;3622;53.576;9.978;2023-05-02T14:37:05;2.33;;;1.40;;
7160;SDS011;3622;53.576;9.978;2023-05-02T14:39:35;3.00;;;1.53;;
7160;SDS011;3622;53.576;9.978;2023-05-02T14:42:01;5.37;;;3.00;;
7160;SDS011;3622;53.576;9.978;2023-05-02T14:44:28;3.00;;;2.40;;
7160;SDS011;3622;53.576;9.978;2023-05-02T14:46:54;2.40;;;2.20;;
7160;SDS011;3622;53.576;9.978;2023-05-02T14:49:20;3.53;;;1.73;;
7160;SDS011;3622;53.576;9.978;2023-05-02T14:51:46;4.27;;;2.50;;
7160;SDS011;3622;53.576;9.978;2023-05-02T14:54:13;1.60;;;1.50;;
7160;SDS011;3622;53.576;9.978;2023-05-02T14:56:40;4.80;;;1.60;;
7160;SDS011;3622;53.576;9.978;2023-05-02T14:59:06;4.40;;;1.60;;
7160;SDS011;3622;53.576;9.978;2023-05-02T15:01:32;4.50;;;4.07;;
7160;SDS011;3622;53.576;9.978;2023-05-02T15:03:58;2.33;;;2.13;;
7160;SDS011;3622;53.576;9.978;2023-05-02T15:06:27;2.00;;;1.90;;
7160;SDS011;3622;53.576;9.978;2023-05-02T15:08:55;2.60;;;2.00;;
7160;SDS011;3622;53.576;9.978;2023-05-02T15:11:21;5.00;;;2.10;;
7160;SDS011;3622;53.576;9.978;2023-05-02T15:13:47;3.20;;;2.17;;
7160;SDS011;3622;53.576;9.978;2023-05-02T15:16:13;2.50;;;2.10;;
7160;SDS011;3622;53.576;9.978;2023-05-02T15:18:39;4.93;;;2.00;;
7160;SDS011;3622;53.576;9.978;2023-05-02T15:21:05;2.60;;;1.90;;
7160;SDS011;3622;53.576;9.978;2023-05-02T15:23:31;7.40;;;2.50;;
7160;SDS011;3622;53.576;9.978;2023-05-02T15:25:57;4.07;;;2.20;;
7160;SDS011;3622;53.576;9.978;2023-05-02T15:28:23;6.43;;;2.30;;
7160;SDS011;3622;53.576;9.978;2023-05-02T15:30:50;3.20;;;1.90;;
7160;SDS011;3622;53.576;9.978;2023-05-02T15:33:16;2.80;;;1.77;;
7160;SDS011;3622;53.576;9.978;2023-05-02T15:35:47;3.67;;;2.13;;
7160;SDS011;3622;53.576;9.978;2023-05-02T15:38:17;3.90;;;2.00;;
7160;SDS011;3622;53.576;9.978;2023-05-02T15:40:43;2.53;;;1.97;;
7160;SDS011;3622;53.576;9.978;2023-05-02T15:43:09;1.70;;;1.60;;
7160;SDS011;3622;53.576;9.978;2023-05-02T15:45:35;2.80;;;1.70;;
7160;SDS011;3622;53.576;9.978;2023-05-02T15:48:01;3.47;;;2.43;;
7160;SDS011;3622;53.576;9.978;2023-05-02T15:50:27;2.80;;;1.60;;